createdAt,value
2022-11-04T00:01:14.141Z,55.47
2022-11-04T00:06:19.500Z,55.27
2022-11-04T00:11:44.631Z,56.18
2022-11-04T00:17:08.479Z,55.13
2022-11-04T00:22:30.991Z,54.40
2022-11-04T00:27:53.452Z,54.60
2022-11-04T00:33:16.108Z,54.57
2022-11-04T00:38:22.809Z,54.50
2022-11-04T00:43:27.761Z,55.30
2022-11-04T00:48:33.336Z,55.90
2022-11-04T00:53:38.389Z,55.40
2022-11-04T00:58:43.462Z,57.43
2022-11-04T01:03:51.728Z,52.90
2022-11-04T01:09:03.591Z,56.40
2022-11-04T01:14:08.817Z,56.17
2022-11-04T01:19:15.308Z,55.27
2022-11-04T01:24:20.950Z,55.63
2022-11-04T01:29:26.524Z,55.38
2022-11-04T01:34:31.434Z,56.33
2022-11-04T01:39:36.756Z,55.78
2022-11-04T01:44:50.627Z,54.97
2022-11-04T01:50:13.844Z,53.30
2022-11-04T01:55:21.815Z,52.53
2022-11-04T02:00:26.980Z,54.20
2022-11-04T02:05:33.218Z,54.83
2022-11-04T02:10:39.832Z,54.83
2022-11-04T02:15:50.949Z,53.47
2022-11-04T02:21:02.248Z,54.77
2022-11-04T02:26:28.529Z,54.13
2022-11-04T02:31:42.918Z,53.02
2022-11-04T02:37:06.713Z,52.90
2022-11-04T02:42:30.038Z,52.67
2022-11-04T02:47:38.340Z,52.03
2022-11-04T02:52:51.412Z,53.13
2022-11-04T02:58:00.101Z,52.70
2022-11-04T03:03:09.689Z,54.20
2022-11-04T03:08:21.110Z,53.80
2022-11-04T03:13:41.771Z,53.67
2022-11-04T03:19:02.029Z,52.80
2022-11-04T03:24:07.972Z,52.07
2022-11-04T03:29:19.593Z,51.67
2022-11-04T03:34:26.015Z,52.83
2022-11-04T03:39:31.534Z,53.07
2022-11-04T03:44:36.657Z,52.43
2022-11-04T03:49:41.647Z,53.27
2022-11-04T03:54:47.898Z,53.10
2022-11-04T04:00:14.407Z,53.73
2022-11-04T04:05:34.524Z,53.03
2022-11-04T04:10:57.456Z,52.38
2022-11-04T04:16:19.296Z,52.53
2022-11-04T04:21:30.749Z,53.47
2022-11-04T04:26:56.237Z,52.65
2022-11-04T04:32:03.388Z,52.80
2022-11-04T04:37:14.489Z,52.47
2022-11-04T04:42:38.444Z,53.00
2022-11-04T04:47:47.159Z,53.23
2022-11-04T04:52:54.607Z,53.50
2022-11-04T04:58:00.296Z,53.63
2022-11-04T05:03:05.249Z,52.37
2022-11-04T05:08:11.055Z,54.07
2022-11-04T05:13:30.343Z,53.50
2022-11-04T05:18:36.083Z,53.00
2022-11-04T05:23:41.061Z,54.17
2022-11-04T05:28:45.939Z,52.27
2022-11-04T05:33:51.306Z,51.90
2022-11-04T05:38:56.317Z,52.40
2022-11-04T05:44:04.267Z,51.40
2022-11-04T05:49:11.344Z,52.80
2022-11-04T05:54:16.452Z,52.00
2022-11-04T05:59:22.586Z,52.43
2022-11-04T06:04:27.466Z,50.87
2022-11-04T06:09:41.451Z,52.83
2022-11-04T06:15:00.308Z,52.37
2022-11-04T06:20:07.224Z,52.17
2022-11-04T06:30:16.304Z,53.40
2022-11-04T06:35:21.480Z,53.57
2022-11-04T06:40:27.117Z,53.43
2022-11-04T06:45:31.985Z,53.03
2022-11-04T06:50:38.229Z,54.40
2022-11-04T06:55:43.792Z,53.90
2022-11-04T07:05:58.592Z,52.83
2022-11-04T07:11:04.297Z,52.07
2022-11-04T07:16:10.597Z,54.20
2022-11-04T07:21:16.318Z,53.63
2022-11-04T07:26:22.720Z,55.03
2022-11-04T07:31:27.639Z,54.60
2022-11-04T07:36:33.320Z,55.70
2022-11-04T07:41:38.573Z,56.15
2022-11-04T07:46:44.093Z,54.77
2022-11-04T07:51:49.141Z,54.47
2022-11-04T07:56:54.592Z,55.67
2022-11-04T08:02:00.361Z,55.07
2022-11-04T08:07:07.685Z,55.63
2022-11-04T08:12:13.345Z,55.83
2022-11-04T08:17:19.255Z,55.90
2022-11-04T08:22:27.545Z,55.90
2022-11-04T08:27:31.028Z,55.88
2022-11-04T08:32:36.806Z,56.95
2022-11-04T08:37:42.137Z,57.67
2022-11-04T08:42:47.916Z,64.20
2022-11-04T08:47:53.403Z,58.87
2022-11-04T08:52:58.920Z,61.27
2022-11-04T08:58:05.046Z,61.23
2022-11-04T09:03:10.809Z,59.67
2022-11-04T09:08:18.847Z,59.23
2022-11-04T09:13:24.249Z,60.20
2022-11-04T09:18:30.732Z,59.20
2022-11-04T09:28:40.583Z,58.07
2022-11-04T09:33:46.459Z,58.50
2022-11-04T09:38:51.998Z,58.67
2022-11-04T09:44:02.861Z,57.93
2022-11-04T09:49:10.891Z,57.97
2022-11-04T09:54:47.101Z,57.37
2022-11-04T09:59:50.859Z,56.03
2022-11-04T10:05:20.031Z,56.43
2022-11-04T10:10:28.021Z,57.13
2022-11-04T10:15:42.334Z,56.30
2022-11-04T10:21:08.862Z,57.07
2022-11-04T10:26:19.591Z,55.43
2022-11-04T10:31:25.950Z,56.73
2022-11-04T10:36:32.159Z,56.23
2022-11-04T10:41:40.238Z,54.80
2022-11-04T10:47:10.897Z,57.40
2022-11-04T10:52:20.668Z,54.53
2022-11-04T10:57:25.790Z,56.87
2022-11-04T11:02:40.089Z,57.10
2022-11-04T11:07:48.531Z,55.07
2022-11-04T11:13:11.813Z,53.73
2022-11-04T11:18:20.988Z,54.00
2022-11-04T11:23:44.086Z,55.13
2022-11-04T11:28:59.038Z,55.17
2022-11-04T11:34:06.704Z,56.43
2022-11-04T11:39:17.719Z,61.30
2022-11-04T11:44:37.606Z,56.57
2022-11-04T11:49:42.751Z,56.40
2022-11-04T11:54:50.879Z,57.23
2022-11-04T12:10:49.918Z,65.70
2022-11-04T12:15:48.117Z,60.97
2022-11-04T12:21:24.654Z,67.42
2022-11-04T12:26:44.791Z,60.75
2022-11-04T12:31:52.726Z,61.03
2022-11-04T12:37:22.063Z,63.20
2022-11-04T12:42:49.479Z,66.00
2022-11-04T12:48:02.829Z,68.10
2022-11-04T12:53:31.611Z,60.67
2022-11-04T12:58:46.053Z,61.47
2022-11-04T13:04:15.327Z,64.00
2022-11-04T13:09:23.565Z,60.93
2022-11-04T13:14:32.042Z,60.63
2022-11-04T13:19:48.650Z,63.83
2022-11-04T13:24:59.955Z,68.70
2022-11-04T13:30:26.279Z,71.97
2022-11-04T13:36:02.451Z,67.00
2022-11-04T13:41:12.837Z,62.53
2022-11-04T13:46:23.809Z,60.57
2022-11-04T13:51:46.999Z,64.53
2022-11-04T13:56:52.331Z,61.83
2022-11-04T14:02:22.382Z,63.33
2022-11-04T14:07:30.764Z,62.27
2022-11-04T14:12:37.340Z,59.70
2022-11-04T14:17:45.323Z,61.00
2022-11-04T14:22:56.249Z,61.83
2022-11-04T14:28:19.483Z,59.80
2022-11-04T14:33:42.748Z,59.17
2022-11-04T14:39:03.500Z,60.33
2022-11-04T14:44:16.743Z,59.93
2022-11-04T14:49:40.330Z,59.93
2022-11-04T14:54:46.580Z,58.87
2022-11-04T14:59:53.191Z,61.53
2022-11-04T15:05:02.488Z,61.03
2022-11-04T15:10:22.553Z,61.57
2022-11-04T15:15:34.852Z,61.14
2022-11-04T15:20:43.168Z,61.70
2022-11-04T15:25:50.406Z,65.80
2022-11-04T15:31:07.876Z,65.50
2022-11-04T15:36:21.890Z,67.23
2022-11-04T15:41:47.588Z,69.97
2022-11-04T15:46:55.990Z,67.37
2022-11-04T15:52:04.357Z,69.77
2022-11-04T15:57:27.711Z,68.60
2022-11-04T16:02:34.987Z,67.27
2022-11-04T16:07:42.660Z,65.80
2022-11-04T16:12:47.837Z,66.60
2022-11-04T16:17:53.041Z,66.20
2022-11-04T16:23:00.881Z,65.27
2022-11-04T16:28:05.863Z,64.63
2022-11-04T16:33:14.154Z,65.10
2022-11-04T16:38:19.593Z,63.23
2022-11-04T16:43:25.621Z,61.33
2022-11-04T16:48:30.531Z,60.23
2022-11-04T16:53:36.203Z,60.98
2022-11-04T16:58:41.363Z,62.15
2022-11-04T17:03:46.943Z,62.47
2022-11-04T17:08:53.694Z,60.80
2022-11-04T17:13:59.033Z,59.60
2022-11-04T17:19:04.101Z,58.30
2022-11-04T17:24:10.324Z,58.50
2022-11-04T17:29:17.484Z,57.53
2022-11-04T17:34:25.194Z,58.46
2022-11-04T17:39:30.136Z,57.87
2022-11-04T17:44:35.380Z,59.55
2022-11-04T17:49:41.438Z,57.67
2022-11-04T17:54:47.242Z,56.23
2022-11-04T17:59:53.232Z,55.47
2022-11-04T18:04:59.519Z,55.00
2022-11-04T18:10:05.638Z,53.70
2022-11-04T18:15:13.603Z,54.08
2022-11-04T18:20:19.167Z,51.53
2022-11-04T18:25:24.721Z,48.47
2022-11-04T18:30:29.977Z,48.13
2022-11-04T18:35:36.469Z,47.33
2022-11-04T18:40:41.572Z,47.53
2022-11-04T18:45:46.537Z,47.23
2022-11-04T18:50:51.598Z,48.10
2022-11-04T18:55:58.968Z,46.87
2022-11-04T19:01:11.058Z,46.80
2022-11-04T19:06:19.342Z,47.27
2022-11-04T19:11:30.558Z,46.87
2022-11-04T19:16:36.459Z,47.23
2022-11-04T19:21:41.387Z,46.70
2022-11-04T19:26:47.422Z,46.83
2022-11-04T19:31:52.500Z,47.17
2022-11-04T19:36:57.460Z,47.27
2022-11-04T19:42:21.164Z,46.17
2022-11-04T19:47:26.327Z,46.53
2022-11-04T19:52:32.411Z,45.70
2022-11-04T19:57:39.346Z,46.43
2022-11-04T20:02:44.718Z,46.47
2022-11-04T20:07:52.040Z,46.57
2022-11-04T20:13:15.430Z,46.03
2022-11-04T20:18:21.245Z,46.43
2022-11-04T20:23:26.446Z,45.98
2022-11-04T20:28:32.541Z,47.70
2022-11-04T20:33:38.961Z,46.53
2022-11-04T20:38:46.495Z,45.88
2022-11-04T20:43:56.175Z,47.20
2022-11-04T20:49:04.238Z,46.50
2022-11-04T20:54:11.079Z,48.57
2022-11-04T20:59:18.465Z,45.87
2022-11-04T21:04:25.034Z,46.33
2022-11-04T21:09:30.144Z,46.93
2022-11-04T21:14:36.481Z,46.17
2022-11-04T21:19:42.193Z,45.83
2022-11-04T21:24:48.304Z,45.40
2022-11-04T21:29:54.213Z,46.93
2022-11-04T21:34:59.331Z,45.97
2022-11-04T21:40:04.999Z,46.90
2022-11-04T21:45:11.786Z,45.23
2022-11-04T21:50:18.332Z,45.38
2022-11-04T21:55:24.906Z,46.10
2022-11-04T22:00:31.012Z,45.55
2022-11-04T22:05:37.378Z,46.43
2022-11-04T22:10:42.786Z,45.80
2022-11-04T22:15:59.669Z,45.80
2022-11-04T22:21:07.511Z,45.60
2022-11-04T22:26:18.851Z,45.80
2022-11-04T22:31:29.527Z,45.77
2022-11-04T22:36:35.072Z,45.80
2022-11-04T22:41:40.293Z,45.63
2022-11-04T22:46:45.456Z,45.60
2022-11-04T22:51:50.998Z,45.40
2022-11-04T22:56:56.023Z,45.20
2022-11-04T23:02:01.497Z,46.00
2022-11-04T23:07:06.652Z,45.47
2022-11-04T23:12:29.578Z,44.87
2022-11-04T23:17:52.588Z,44.83
2022-11-04T23:23:15.785Z,45.27
2022-11-04T23:28:39.169Z,44.83
2022-11-04T23:34:02.705Z,44.90
2022-11-04T23:39:08.220Z,44.77
2022-11-04T23:44:15.220Z,44.83
2022-11-04T23:49:38.209Z,45.30
2022-11-04T23:55:01.436Z,44.87
